sensor_id;sensor_type;location;lat;lon;timestamp;pressure;altitude;pressure_sealevel;temperature;humidity
57628;BME280;43451;49.060;10.616;2022-12-07T00:01:20;96724.56;;;1.46;100.00
57628;BME280;43451;49.060;10.616;2022-12-07T00:03:47;96724.69;;;1.49;100.00
57628;BME280;43451;49.060;10.616;2022-12-07T00:06:15;96724.81;;;1.53;100.00
57628;BME280;43451;49.060;10.616;2022-12-07T00:08:41;96715.84;;;1.49;100.00
57628;BME280;43451;49.060;10.616;2022-12-07T00:11:12;96720.78;;;1.47;100.00
57628;BME280;43451;49.060;10.616;2022-12-07T00:13:38;96724.56;;;1.46;100.00
57628;BME280;43451;49.060;10.616;2022-12-07T00:16:07;96721.44;;;1.44;100.00
57628;BME280;43451;49.060;10.616;2022-12-07T00:18:34;96724.22;;;1.47;100.00
57628;BME280;43451;49.060;10.616;2022-12-07T00:21:03;96719.34;;;1.49;100.00
57628;BME280;43451;49.060;10.616;2022-12-07T00:23:29;96718.53;;;1.49;100.00
57628;BME280;43451;49.060;10.616;2022-12-07T00:25:55;96714.41;;;1.51;100.00
57628;BME280;43451;49.060;10.616;2022-12-07T00:28:20;96724.03;;;1.52;100.00
57628;BME280;43451;49.060;10.616;2022-12-07T00:30:46;96713.75;;;1.54;100.00
57628;BME280;43451;49.060;10.616;2022-12-07T00:33:11;96715.53;;;1.50;100.00
57628;BME280;43451;49.060;10.616;2022-12-07T00:35:36;96714.75;;;1.50;100.00
57628;BME280;43451;49.060;10.616;2022-12-07T00:38:02;96704.72;;;1.47;100.00
57628;BME280;43451;49.060;10.616;2022-12-07T00:40:27;96703.59;;;1.48;100.00
57628;BME280;43451;49.060;10.616;2022-12-07T00:42:52;96708.16;;;1.47;100.00
57628;BME280;43451;49.060;10.616;2022-12-07T00:45:18;96702.03;;;1.47;100.00
57628;BME280;43451;49.060;10.616;2022-12-07T00:47:43;96707.81;;;1.49;100.00
57628;BME280;43451;49.060;10.616;2022-12-07T00:50:09;96707.72;;;1.45;100.00
57628;BME280;43451;49.060;10.616;2022-12-07T00:52:34;96708.94;;;1.48;100.00
57628;BME280;43451;49.060;10.616;2022-12-07T00:55:00;96707.41;;;1.47;100.00
57628;BME280;43451;49.060;10.616;2022-12-07T00:57:25;96715.44;;;1.47;100.00
57628;BME280;43451;49.060;10.616;2022-12-07T00:59:50;96708.38;;;1.42;100.00
57628;BME280;43451;49.060;10.616;2022-12-07T01:02:20;96712.50;;;1.39;100.00
57628;BME280;43451;49.060;10.616;2022-12-07T01:04:46;96720.19;;;1.41;100.00
57628;BME280;43451;49.060;10.616;2022-12-07T01:07:11;96720.66;;;1.43;100.00
57628;BME280;43451;49.060;10.616;2022-12-07T01:09:36;96719.44;;;1.41;100.00
57628;BME280;43451;49.060;10.616;2022-12-07T01:12:02;96715.97;;;1.40;100.00
57628;BME280;43451;49.060;10.616;2022-12-07T01:14:28;96722.88;;;1.41;100.00
57628;BME280;43451;49.060;10.616;2022-12-07T01:16:53;96723.00;;;1.45;100.00
57628;BME280;43451;49.060;10.616;2022-12-07T01:19:18;96723.19;;;1.39;100.00
57628;BME280;43451;49.060;10.616;2022-12-07T01:21:44;96722.09;;;1.41;100.00
57628;BME280;43451;49.060;10.616;2022-12-07T01:24:10;96712.06;;;1.37;100.00
57628;BME280;43451;49.060;10.616;2022-12-07T01:26:36;96725.88;;;1.39;100.00
57628;BME280;43451;49.060;10.616;2022-12-07T01:29:01;96727.47;;;1.41;100.00
57628;BME280;43451;49.060;10.616;2022-12-07T01:31:27;96724.56;;;1.46;100.00
57628;BME280;43451;49.060;10.616;2022-12-07T01:33:56;96729.13;;;1.45;100.00
57628;BME280;43451;49.060;10.616;2022-12-07T01:36:32;96722.00;;;1.37;100.00
57628;BME280;43451;49.060;10.616;2022-12-07T01:39:03;96726.56;;;1.36;100.00
57628;BME280;43451;49.060;10.616;2022-12-07T01:41:31;96723.44;;;1.34;100.00
57628;BME280;43451;49.060;10.616;2022-12-07T01:46:38;96721.88;;;1.33;100.00
57628;BME280;43451;49.060;10.616;2022-12-07T01:49:06;96724.31;;;1.38;100.00
57628;BME280;43451;49.060;10.616;2022-12-07T01:51:34;96720.41;;;1.36;100.00
57628;BME280;43451;49.060;10.616;2022-12-07T01:54:00;96723.44;;;1.34;100.00
57628;BME280;43451;49.060;10.616;2022-12-07T01:56:27;96723.88;;;1.36;100.00
57628;BME280;43451;49.060;10.616;2022-12-07T01:58:54;96721.22;;;1.36;100.00
57628;BME280;43451;49.060;10.616;2022-12-07T02:01:21;96728.31;;;1.32;100.00
57628;BME280;43451;49.060;10.616;2022-12-07T02:03:47;96723.31;;;1.31;100.00
57628;BME280;43451;49.060;10.616;2022-12-07T02:06:18;96717.97;;;1.31;100.00
57628;BME280;43451;49.060;10.616;2022-12-07T02:08:45;96721.41;;;1.31;100.00
57628;BME280;43451;49.060;10.616;2022-12-07T02:11:11;96718.72;;;1.31;100.00
57628;BME280;43451;49.060;10.616;2022-12-07T02:13:39;96717.97;;;1.31;100.00
57628;BME280;43451;49.060;10.616;2022-12-07T02:21:53;96720.53;;;1.39;100.00
57628;BME280;43451;49.060;10.616;2022-12-07T02:30:04;96717.38;;;1.25;100.00
57628;BME280;43451;49.060;10.616;2022-12-07T02:35:21;96708.88;;;1.23;100.00
57628;BME280;43451;49.060;10.616;2022-12-07T02:43:26;96710.78;;;1.23;100.00
57628;BME280;43451;49.060;10.616;2022-12-07T02:45:56;96713.53;;;1.14;100.00
57628;BME280;43451;49.060;10.616;2022-12-07T02:48:24;96709.19;;;1.09;100.00
57628;BME280;43451;49.060;10.616;2022-12-07T02:50:51;96699.50;;;1.05;100.00
57628;BME280;43451;49.060;10.616;2022-12-07T02:53:34;96713.53;;;1.02;100.00
57628;BME280;43451;49.060;10.616;2022-12-07T02:56:11;96720.31;;;0.99;100.00
57628;BME280;43451;49.060;10.616;2022-12-07T03:10:24;96709.28;;;1.01;100.00
57628;BME280;43451;49.060;10.616;2022-12-07T03:13:12;96700.81;;;0.99;100.00
57628;BME280;43451;49.060;10.616;2022-12-07T03:15:58;96702.81;;;1.02;100.00
57628;BME280;43451;49.060;10.616;2022-12-07T03:18:30;96697.00;;;1.00;100.00
57628;BME280;43451;49.060;10.616;2022-12-07T03:21:00;96694.88;;;0.93;100.00
57628;BME280;43451;49.060;10.616;2022-12-07T03:23:27;96693.75;;;0.94;100.00
57628;BME280;43451;49.060;10.616;2022-12-07T03:25:57;96696.25;;;0.99;100.00
57628;BME280;43451;49.060;10.616;2022-12-07T03:28:28;96684.25;;;0.84;100.00
57628;BME280;43451;49.060;10.616;2022-12-07T03:33:42;96681.28;;;0.65;100.00
57628;BME280;43451;49.060;10.616;2022-12-07T03:36:47;96684.00;;;0.56;100.00
57628;BME280;43451;49.060;10.616;2022-12-07T03:40:07;96681.88;;;0.50;100.00
57628;BME280;43451;49.060;10.616;2022-12-07T03:42:12;96681.53;;;0.30;100.00
57628;BME280;43451;49.060;10.616;2022-12-07T03:44:38;96676.59;;;0.20;100.00
57628;BME280;43451;49.060;10.616;2022-12-07T03:47:49;96672.56;;;0.14;100.00
57628;BME280;43451;49.060;10.616;2022-12-07T03:53:24;96673.59;;;0.01;100.00
57628;BME280;43451;49.060;10.616;2022-12-07T03:55:54;96675.78;;;-0.02;100.00
57628;BME280;43451;49.060;10.616;2022-12-07T03:58:21;96674.66;;;-0.01;100.00
57628;BME280;43451;49.060;10.616;2022-12-07T04:00:49;96676.13;;;-0.03;100.00
57628;BME280;43451;49.060;10.616;2022-12-07T04:03:15;96675.31;;;-0.04;100.00
57628;BME280;43451;49.060;10.616;2022-12-07T04:05:41;96668.50;;;0.08;100.00
57628;BME280;43451;49.060;10.616;2022-12-07T04:08:07;96662.50;;;0.11;100.00
57628;BME280;43451;49.060;10.616;2022-12-07T04:10:33;96654.81;;;0.09;100.00
57628;BME280;43451;49.060;10.616;2022-12-07T04:12:58;96660.50;;;0.08;100.00
57628;BME280;43451;49.060;10.616;2022-12-07T04:15:23;96645.84;;;0.14;100.00
57628;BME280;43451;49.060;10.616;2022-12-07T04:17:49;96648.69;;;0.09;100.00
57628;BME280;43451;49.060;10.616;2022-12-07T04:20:14;96649.28;;;0.14;100.00
57628;BME280;43451;49.060;10.616;2022-12-07T04:22:40;96644.28;;;0.34;100.00
57628;BME280;43451;49.060;10.616;2022-12-07T04:25:06;96644.41;;;0.37;100.00
57628;BME280;43451;49.060;10.616;2022-12-07T04:27:31;96635.94;;;0.35;100.00
57628;BME280;43451;49.060;10.616;2022-12-07T04:29:57;96643.56;;;0.45;100.00
57628;BME280;43451;49.060;10.616;2022-12-07T04:32:23;96642.00;;;0.44;100.00
57628;BME280;43451;49.060;10.616;2022-12-07T04:34:48;96642.03;;;0.57;100.00
57628;BME280;43451;49.060;10.616;2022-12-07T04:37:14;96634.22;;;0.52;100.00
57628;BME280;43451;49.060;10.616;2022-12-07T04:39:39;96627.31;;;0.51;100.00
57628;BME280;43451;49.060;10.616;2022-12-07T04:42:05;96626.81;;;0.57;100.00
57628;BME280;43451;49.060;10.616;2022-12-07T04:44:30;96618.84;;;0.49;100.00
57628;BME280;43451;49.060;10.616;2022-12-07T04:46:56;96617.31;;;0.60;100.00
57628;BME280;43451;49.060;10.616;2022-12-07T04:49:22;96620.88;;;0.52;100.00
57628;BME280;43451;49.060;10.616;2022-12-07T04:51:48;96627.59;;;0.37;100.00
57628;BME280;43451;49.060;10.616;2022-12-07T04:54:14;96625.78;;;0.29;100.00
57628;BME280;43451;49.060;10.616;2022-12-07T04:56:40;96635.88;;;0.23;100.00
57628;BME280;43451;49.060;10.616;2022-12-07T04:59:06;96630.72;;;0.18;100.00
57628;BME280;43451;49.060;10.616;2022-12-07T05:01:32;96623.81;;;0.17;100.00
57628;BME280;43451;49.060;10.616;2022-12-07T05:03:58;96637.38;;;0.12;100.00
57628;BME280;43451;49.060;10.616;2022-12-07T05:06:24;96649.34;;;0.06;100.00
57628;BME280;43451;49.060;10.616;2022-12-07T05:08:49;96651.69;;;0.07;100.00
57628;BME280;43451;49.060;10.616;2022-12-07T05:11:15;96650.94;;;0.07;100.00
57628;BME280;43451;49.060;10.616;2022-12-07T05:14:01;96652.75;;;0.15;100.00
57628;BME280;43451;49.060;10.616;2022-12-07T05:16:26;96661.09;;;0.13;100.00
57628;BME280;43451;49.060;10.616;2022-12-07T05:18:52;96657.94;;;0.11;100.00
57628;BME280;43451;49.060;10.616;2022-12-07T05:21:18;96646.75;;;0.18;100.00
57628;BME280;43451;49.060;10.616;2022-12-07T05:23:43;96657.84;;;0.29;100.00
57628;BME280;43451;49.060;10.616;2022-12-07T05:26:09;96647.16;;;0.29;100.00
57628;BME280;43451;49.060;10.616;2022-12-07T05:28:35;96654.84;;;0.30;100.00
57628;BME280;43451;49.060;10.616;2022-12-07T05:31:00;96652.63;;;0.32;100.00
57628;BME280;43451;49.060;10.616;2022-12-07T05:33:26;96648.97;;;0.37;100.00
57628;BME280;43451;49.060;10.616;2022-12-07T05:35:51;96648.31;;;0.40;100.00
57628;BME280;43451;49.060;10.616;2022-12-07T05:38:17;96650.66;;;0.41;100.00
57628;BME280;43451;49.060;10.616;2022-12-07T05:40:42;96650.78;;;0.45;100.00
57628;BME280;43451;49.060;10.616;2022-12-07T05:43:08;96648.69;;;0.51;100.00
57628;BME280;43451;49.060;10.616;2022-12-07T05:45:34;96659.19;;;0.56;100.00
57628;BME280;43451;49.060;10.616;2022-12-07T05:48:00;96657.75;;;0.58;100.00
57628;BME280;43451;49.060;10.616;2022-12-07T05:50:25;96656.50;;;0.56;100.00
57628;BME280;43451;49.060;10.616;2022-12-07T05:52:50;96663.94;;;0.50;100.00
57628;BME280;43451;49.060;10.616;2022-12-07T05:55:16;96656.38;;;0.52;100.00
57628;BME280;43451;49.060;10.616;2022-12-07T05:57:41;96674.56;;;0.59;100.00
57628;BME280;43451;49.060;10.616;2022-12-07T06:00:29;96661.84;;;0.56;100.00
57628;BME280;43451;49.060;10.616;2022-12-07T06:02:55;96663.41;;;0.57;100.00
57628;BME280;43451;49.060;10.616;2022-12-07T06:05:20;96659.44;;;0.63;100.00
57628;BME280;43451;49.060;10.616;2022-12-07T06:07:45;96648.97;;;0.58;100.00
57628;BME280;43451;49.060;10.616;2022-12-07T06:10:11;96663.41;;;0.57;100.00
57628;BME280;43451;49.060;10.616;2022-12-07T06:12:36;96657.41;;;0.60;100.00
57628;BME280;43451;49.060;10.616;2022-12-07T06:15:05;96662.88;;;0.63;100.00
57628;BME280;43451;49.060;10.616;2022-12-07T06:17:30;96658.13;;;0.69;100.00
57628;BME280;43451;49.060;10.616;2022-12-07T06:19:56;96659.78;;;0.61;100.00
57628;BME280;43451;49.060;10.616;2022-12-07T06:22:21;96655.22;;;0.62;100.00
57628;BME280;43451;49.060;10.616;2022-12-07T06:24:47;96666.25;;;0.60;100.00
57628;BME280;43451;49.060;10.616;2022-12-07T06:27:13;96661.25;;;0.71;100.00
57628;BME280;43451;49.060;10.616;2022-12-07T06:29:38;96669.94;;;0.68;100.00
57628;BME280;43451;49.060;10.616;2022-12-07T06:32:04;96678.25;;;0.66;100.00
57628;BME280;43451;49.060;10.616;2022-12-07T06:34:30;96682.31;;;0.73;100.00
57628;BME280;43451;49.060;10.616;2022-12-07T06:36:55;96682.78;;;0.75;100.00
57628;BME280;43451;49.060;10.616;2022-12-07T06:39:23;96678.41;;;0.70;100.00
57628;BME280;43451;49.060;10.616;2022-12-07T06:41:49;96679.91;;;0.80;100.00
57628;BME280;43451;49.060;10.616;2022-12-07T06:44:14;96683.13;;;0.73;100.00
57628;BME280;43451;49.060;10.616;2022-12-07T06:46:40;96682.78;;;0.75;100.00
57628;BME280;43451;49.060;10.616;2022-12-07T06:49:05;96684.13;;;0.81;100.00
57628;BME280;43451;49.060;10.616;2022-12-07T06:51:31;96681.88;;;0.71;100.00
57628;BME280;43451;49.060;10.616;2022-12-07T06:53:57;96679.97;;;0.71;100.00
57628;BME280;43451;49.060;10.616;2022-12-07T06:56:23;96675.28;;;0.68;100.00
57628;BME280;43451;49.060;10.616;2022-12-07T06:58:48;96682.84;;;0.66;100.00
57628;BME280;43451;49.060;10.616;2022-12-07T07:01:16;96679.63;;;0.73;100.00
57628;BME280;43451;49.060;10.616;2022-12-07T07:03:43;96682.66;;;0.71;100.00
57628;BME280;43451;49.060;10.616;2022-12-07T07:06:09;96679.97;;;0.71;100.00
57628;BME280;43451;49.060;10.616;2022-12-07T07:08:35;96680.44;;;0.73;100.00
57628;BME280;43451;49.060;10.616;2022-12-07T07:11:01;96685.78;;;0.73;100.00
57628;BME280;43451;49.060;10.616;2022-12-07T07:13:27;96691.69;;;0.79;100.00
57628;BME280;43451;49.060;10.616;2022-12-07T07:15:53;96689.22;;;0.74;100.00
57628;BME280;43451;49.060;10.616;2022-12-07T07:18:19;96676.97;;;0.73;100.00
57628;BME280;43451;49.060;10.616;2022-12-07T07:20:44;96682.47;;;0.76;100.00
57628;BME280;43451;49.060;10.616;2022-12-07T07:23:10;96684.78;;;0.78;100.00
57628;BME280;43451;49.060;10.616;2022-12-07T07:25:35;96686.34;;;0.79;100.00
57628;BME280;43451;49.060;10.616;2022-12-07T07:28:01;96691.69;;;0.79;100.00
57628;BME280;43451;49.060;10.616;2022-12-07T07:30:27;96686.03;;;0.80;100.00
57628;BME280;43451;49.060;10.616;2022-12-07T07:33:05;96683.34;;;0.80;100.00
57628;BME280;43451;49.060;10.616;2022-12-07T07:35:32;96688.81;;;0.84;100.00
57628;BME280;43451;49.060;10.616;2022-12-07T07:37:58;96691.63;;;0.87;100.00
57628;BME280;43451;49.060;10.616;2022-12-07T07:40:24;96695.53;;;0.90;100.00
57628;BME280;43451;49.060;10.616;2022-12-07T07:42:51;96699.22;;;0.98;100.00
57628;BME280;43451;49.060;10.616;2022-12-07T07:45:18;96696.91;;;0.96;100.00
57628;BME280;43451;49.060;10.616;2022-12-07T07:47:44;96696.13;;;0.96;100.00
57628;BME280;43451;49.060;10.616;2022-12-07T07:50:10;96691.84;;;0.95;100.00
57628;BME280;43451;49.060;10.616;2022-12-07T07:52:35;96698.31;;;0.93;100.00
57628;BME280;43451;49.060;10.616;2022-12-07T07:55:01;96705.22;;;0.95;100.00
57628;BME280;43451;49.060;10.616;2022-12-07T07:57:26;96704.91;;;0.96;100.00
57628;BME280;43451;49.060;10.616;2022-12-07T07:59:52;96698.44;;;0.97;100.00
57628;BME280;43451;49.060;10.616;2022-12-07T08:02:19;96702.38;;;1.00;100.00
57628;BME280;43451;49.060;10.616;2022-12-07T08:04:46;96703.25;;;1.04;100.00
57628;BME280;43451;49.060;10.616;2022-12-07T08:07:13;96704.75;;;1.13;100.00
57628;BME280;43451;49.060;10.616;2022-12-07T08:09:39;96705.19;;;1.15;100.00
57628;BME280;43451;49.060;10.616;2022-12-07T08:12:05;96706.78;;;1.29;100.00
57628;BME280;43451;49.060;10.616;2022-12-07T08:14:30;96706.66;;;1.25;100.00
57628;BME280;43451;49.060;10.616;2022-12-07T08:16:56;96701.31;;;1.25;100.00
57628;BME280;43451;49.060;10.616;2022-12-07T08:19:22;96714.25;;;1.23;100.00
57628;BME280;43451;49.060;10.616;2022-12-07T08:21:48;96707.13;;;1.27;100.00
57628;BME280;43451;49.060;10.616;2022-12-07T08:24:13;96705.66;;;1.30;100.00
57628;BME280;43451;49.060;10.616;2022-12-07T08:26:39;96693.75;;;1.39;100.00
57628;BME280;43451;49.060;10.616;2022-12-07T08:29:05;96696.91;;;1.42;100.00
57628;BME280;43451;49.060;10.616;2022-12-07T08:31:31;96701.59;;;1.45;100.00
57628;BME280;43451;49.060;10.616;2022-12-07T08:33:56;96703.38;;;1.41;100.00
57628;BME280;43451;49.060;10.616;2022-12-07T08:36:22;96713.84;;;1.46;100.00
57628;BME280;43451;49.060;10.616;2022-12-07T08:38:48;96705.28;;;1.40;100.00
57628;BME280;43451;49.060;10.616;2022-12-07T08:41:14;96708.50;;;1.46;100.00
57628;BME280;43451;49.060;10.616;2022-12-07T08:43:40;96700.91;;;1.48;100.00
57628;BME280;43451;49.060;10.616;2022-12-07T08:46:09;96701.03;;;1.51;100.00
57628;BME280;43451;49.060;10.616;2022-12-07T08:49:04;96701.41;;;1.62;100.00
57628;BME280;43451;49.060;10.616;2022-12-07T08:51:31;96708.31;;;1.63;100.00
57628;BME280;43451;49.060;10.616;2022-12-07T08:53:58;96708.09;;;1.68;100.00
57628;BME280;43451;49.060;10.616;2022-12-07T08:56:26;96713.88;;;1.70;100.00
57628;BME280;43451;49.060;10.616;2022-12-07T08:58:52;96706.19;;;1.69;100.00
57628;BME280;43451;49.060;10.616;2022-12-07T09:01:18;96714.44;;;1.76;100.00
57628;BME280;43451;49.060;10.616;2022-12-07T09:03:43;96722.25;;;1.69;100.00
57628;BME280;43451;49.060;10.616;2022-12-07T09:06:08;96710.09;;;1.71;100.00
57628;BME280;43451;49.060;10.616;2022-12-07T09:08:40;96719.72;;;1.84;100.00
57628;BME280;43451;49.060;10.616;2022-12-07T09:11:07;96715.03;;;1.81;100.00
57628;BME280;43451;49.060;10.616;2022-12-07T09:13:33;96718.13;;;1.83;100.00
57628;BME280;43451;49.060;10.616;2022-12-07T09:15:58;96716.69;;;1.86;100.00
57628;BME280;43451;49.060;10.616;2022-12-07T09:18:24;96716.78;;;1.90;100.00
57628;BME280;43451;49.060;10.616;2022-12-07T09:20:50;96708.75;;;2.02;100.00
57628;BME280;43451;49.060;10.616;2022-12-07T09:23:15;96714.78;;;1.99;100.00
57628;BME280;43451;49.060;10.616;2022-12-07T09:25:41;96706.09;;;2.02;100.00
57628;BME280;43451;49.060;10.616;2022-12-07T09:28:06;96698.50;;;2.04;100.00
57628;BME280;43451;49.060;10.616;2022-12-07T09:30:32;96699.03;;;2.22;100.00
57628;BME280;43451;49.060;10.616;2022-12-07T09:32:57;96700.63;;;2.11;100.00
57628;BME280;43451;49.060;10.616;2022-12-07T09:35:24;96701.94;;;2.17;100.00
57628;BME280;43451;49.060;10.616;2022-12-07T09:37:49;96690.00;;;2.14;100.00
57628;BME280;43451;49.060;10.616;2022-12-07T09:40:16;96694.22;;;2.15;100.00
57628;BME280;43451;49.060;10.616;2022-12-07T09:42:45;96692.00;;;2.17;100.00
57628;BME280;43451;49.060;10.616;2022-12-07T09:45:19;96694.00;;;2.20;100.00
57628;BME280;43451;49.060;10.616;2022-12-07T09:47:46;96690.53;;;2.32;100.00
57628;BME280;43451;49.060;10.616;2022-12-07T09:52:44;96689.75;;;2.31;100.00
57628;BME280;43451;49.060;10.616;2022-12-07T09:55:14;96685.19;;;2.32;100.00
57628;BME280;43451;49.060;10.616;2022-12-07T09:57:41;96682.16;;;2.33;100.00
57628;BME280;43451;49.060;10.616;2022-12-07T10:00:19;96689.97;;;2.39;100.00
57628;BME280;43451;49.060;10.616;2022-12-07T10:02:55;96690.16;;;2.46;100.00
57628;BME280;43451;49.060;10.616;2022-12-07T10:05:28;96691.50;;;2.52;100.00
57628;BME280;43451;49.060;10.616;2022-12-07T10:07:55;96685.91;;;2.57;100.00
57628;BME280;43451;49.060;10.616;2022-12-07T10:10:31;96686.00;;;2.61;100.00
57628;BME280;43451;49.060;10.616;2022-12-07T10:13:10;96679.63;;;2.53;100.00
57628;BME280;43451;49.060;10.616;2022-12-07T10:18:25;96666.78;;;2.59;100.00
57628;BME280;43451;49.060;10.616;2022-12-07T10:21:05;96660.38;;;2.63;100.00
57628;BME280;43451;49.060;10.616;2022-12-07T10:23:33;96659.25;;;2.76;100.00
57628;BME280;43451;49.060;10.616;2022-12-07T10:25:58;96661.47;;;2.74;100.00
57628;BME280;43451;49.060;10.616;2022-12-07T10:28:34;96661.81;;;2.73;100.00
57628;BME280;43451;49.060;10.616;2022-12-07T10:31:14;96652.75;;;2.77;100.00
57628;BME280;43451;49.060;10.616;2022-12-07T10:33:57;96663.56;;;2.81;100.00
57628;BME280;43451;49.060;10.616;2022-12-07T10:36:35;96656.28;;;2.82;100.00
57628;BME280;43451;49.060;10.616;2022-12-07T10:39:14;96657.44;;;2.81;100.00
57628;BME280;43451;49.060;10.616;2022-12-07T10:42:00;96647.97;;;2.99;100.00
57628;BME280;43451;49.060;10.616;2022-12-07T10:44:31;96651.75;;;2.98;100.00
57628;BME280;43451;49.060;10.616;2022-12-07T10:57:57;96646.63;;;2.93;100.00
57628;BME280;43451;49.060;10.616;2022-12-07T11:00:33;96639.91;;;2.99;100.00
57628;BME280;43451;49.060;10.616;2022-12-07T11:11:35;96635.22;;;2.96;100.00
57628;BME280;43451;49.060;10.616;2022-12-07T11:16:52;96635.66;;;2.98;100.00
57628;BME280;43451;49.060;10.616;2022-12-07T11:22:05;96630.28;;;2.98;100.00
57628;BME280;43451;49.060;10.616;2022-12-07T11:24:48;96624.50;;;2.96;100.00
57628;BME280;43451;49.060;10.616;2022-12-07T11:35:19;96619.56;;;3.14;100.00
57628;BME280;43451;49.060;10.616;2022-12-07T11:37:49;96613.63;;;3.20;100.00
57628;BME280;43451;49.060;10.616;2022-12-07T11:40:21;96614.81;;;3.23;100.00
57628;BME280;43451;49.060;10.616;2022-12-07T11:45:33;96614.72;;;3.19;100.00
57628;BME280;43451;49.060;10.616;2022-12-07T11:48:06;96606.69;;;3.35;100.00
57628;BME280;43451;49.060;10.616;2022-12-07T11:50:47;96604.06;;;3.23;100.00
57628;BME280;43451;49.060;10.616;2022-12-07T11:53:19;96596.47;;;3.09;100.00
57628;BME280;43451;49.060;10.616;2022-12-07T11:59:02;96600.44;;;2.99;100.00
57628;BME280;43451;49.060;10.616;2022-12-07T12:06:36;96584.06;;;2.89;100.00
57628;BME280;43451;49.060;10.616;2022-12-07T12:22:37;96574.53;;;3.07;100.00
57628;BME280;43451;49.060;10.616;2022-12-07T12:25:07;96577.66;;;3.09;100.00
57628;BME280;43451;49.060;10.616;2022-12-07T12:27:45;96573.84;;;3.10;100.00
57628;BME280;43451;49.060;10.616;2022-12-07T12:30:36;96571.78;;;3.19;100.00
57628;BME280;43451;49.060;10.616;2022-12-07T12:33:20;96570.41;;;3.25;100.00
57628;BME280;43451;49.060;10.616;2022-12-07T12:50:39;96575.22;;;3.04;100.00
57628;BME280;43451;49.060;10.616;2022-12-07T12:53:14;96560.53;;;3.14;100.00
57628;BME280;43451;49.060;10.616;2022-12-07T12:58:38;96560.34;;;3.22;100.00
57628;BME280;43451;49.060;10.616;2022-12-07T13:01:42;96558.09;;;3.24;100.00
57628;BME280;43451;49.060;10.616;2022-12-07T13:04:39;96555.25;;;3.33;100.00
57628;BME280;43451;49.060;10.616;2022-12-07T13:07:11;96552.47;;;3.30;100.00
57628;BME280;43451;49.060;10.616;2022-12-07T13:09:43;96558.19;;;3.28;100.00
57628;BME280;43451;49.060;10.616;2022-12-07T13:12:14;96552.13;;;3.31;100.00
57628;BME280;43451;49.060;10.616;2022-12-07T13:14:53;96556.44;;;3.20;100.00
57628;BME280;43451;49.060;10.616;2022-12-07T13:20:02;96550.75;;;3.06;100.00
57628;BME280;43451;49.060;10.616;2022-12-07T13:27:31;96553.06;;;2.91;100.00
57628;BME280;43451;49.060;10.616;2022-12-07T13:29:57;96548.22;;;2.97;100.00
57628;BME280;43451;49.060;10.616;2022-12-07T13:32:25;96557.25;;;2.89;100.00
57628;BME280;43451;49.060;10.616;2022-12-07T13:34:51;96546.50;;;2.89;100.00
57628;BME280;43451;49.060;10.616;2022-12-07T13:37:26;96550.06;;;2.93;100.00
57628;BME280;43451;49.060;10.616;2022-12-07T13:40:00;96545.63;;;3.00;100.00
57628;BME280;43451;49.060;10.616;2022-12-07T13:44:56;96556.56;;;2.92;100.00
57628;BME280;43451;49.060;10.616;2022-12-07T13:47:46;96558.44;;;2.91;100.00
57628;BME280;43451;49.060;10.616;2022-12-07T13:50:28;96547.53;;;2.84;100.00
57628;BME280;43451;49.060;10.616;2022-12-07T13:52:59;96542.53;;;2.83;100.00
57628;BME280;43451;49.060;10.616;2022-12-07T13:55:25;96548.03;;;2.74;100.00
57628;BME280;43451;49.060;10.616;2022-12-07T13:57:52;96547.59;;;2.72;100.00
57628;BME280;43451;49.060;10.616;2022-12-07T14:00:27;96545.09;;;2.79;100.00
57628;BME280;43451;49.060;10.616;2022-12-07T14:03:25;96544.13;;;2.71;100.00
57628;BME280;43451;49.060;10.616;2022-12-07T14:08:31;96547.88;;;2.83;100.00
57628;BME280;43451;49.060;10.616;2022-12-07T14:10:57;96553.06;;;2.75;100.00
57628;BME280;43451;49.060;10.616;2022-12-07T14:13:37;96561.38;;;2.70;100.00
57628;BME280;43451;49.060;10.616;2022-12-07T14:16:31;96561.38;;;2.70;100.00
57628;BME280;43451;49.060;10.616;2022-12-07T14:18:59;96565.16;;;2.69;100.00
57628;BME280;43451;49.060;10.616;2022-12-07T14:21:27;96557.91;;;2.70;100.00
57628;BME280;43451;49.060;10.616;2022-12-07T14:24:14;96553.47;;;2.62;100.00
57628;BME280;43451;49.060;10.616;2022-12-07T14:26:40;96552.44;;;2.66;100.00
57628;BME280;43451;49.060;10.616;2022-12-07T14:29:38;96558.38;;;2.60;100.00
57628;BME280;43451;49.060;10.616;2022-12-07T14:34:57;96562.09;;;2.55;100.00
57628;BME280;43451;49.060;10.616;2022-12-07T14:37:24;96566.34;;;2.56;100.00
57628;BME280;43451;49.060;10.616;2022-12-07T14:39:50;96551.53;;;2.46;100.00
57628;BME280;43451;49.060;10.616;2022-12-07T14:42:16;96560.56;;;2.54;100.00
57628;BME280;43451;49.060;10.616;2022-12-07T14:44:41;96557.66;;;2.47;100.00
57628;BME280;43451;49.060;10.616;2022-12-07T14:47:10;96562.84;;;2.40;100.00
57628;BME280;43451;49.060;10.616;2022-12-07T14:49:35;96559.47;;;2.43;100.00
57628;BME280;43451;49.060;10.616;2022-12-07T14:52:01;96563.81;;;2.47;100.00
57628;BME280;43451;49.060;10.616;2022-12-07T14:54:27;96556.81;;;2.43;100.00
57628;BME280;43451;49.060;10.616;2022-12-07T14:56:55;96555.25;;;2.42;100.00
57628;BME280;43451;49.060;10.616;2022-12-07T14:59:21;96558.75;;;2.30;100.00
57628;BME280;43451;49.060;10.616;2022-12-07T15:01:46;96556.53;;;2.32;100.00
57628;BME280;43451;49.060;10.616;2022-12-07T15:04:12;96549.06;;;2.25;100.00
57628;BME280;43451;49.060;10.616;2022-12-07T15:06:37;96560.03;;;2.20;100.00
57628;BME280;43451;49.060;10.616;2022-12-07T15:09:03;96558.22;;;2.24;100.00
57628;BME280;43451;49.060;10.616;2022-12-07T15:11:28;96553.00;;;2.16;100.00
57628;BME280;43451;49.060;10.616;2022-12-07T15:13:54;96553.00;;;2.16;100.00
57628;BME280;43451;49.060;10.616;2022-12-07T15:16:38;96547.53;;;2.12;100.00